Lemmer, Netherlands
Current Conditions -  °F | °C
As of 9:25 AM on Monday 24 Nov 2014 (Local Time) from EHLW Reporting Station
Clear Clear  
Wind Chill: 39°   Ceiling: Unl
Heat Index: 43°   Visibility: 6mi
Dew Point: 39°   Wind: 7mph
Humidity: 87%   Direction: 260°W
Pressure: 30.18"   Gusts: NA
Location:  52.85°N, 5.71°E
Report Text: EHLW 240825Z AUTO 26006KT 9999 NCD 06/04 Q1022 BLU
Loading
Personal Weather Stations






























Interactive Weather Map New forecast layout! Learn more

10-Day Weather Forecast

Advertisements
Track Severe Weather on mobile